createdAt,value
2018-11-28T00:02:28.365Z,100490.05
2018-11-28T00:05:01.823Z,100491.52
2018-11-28T00:07:38.075Z,100493.25
2018-11-28T00:10:14.123Z,100480.70
2018-11-28T00:12:47.033Z,100482.49
2018-11-28T00:15:19.982Z,100478.07
2018-11-28T00:17:53.213Z,100473.03
2018-11-28T00:20:26.461Z,100481.78
2018-11-28T00:23:00.836Z,100482.76
2018-11-28T00:25:34.053Z,100482.59
2018-11-28T00:28:07.472Z,100478.22
2018-11-28T00:30:40.852Z,100466.13
2018-11-28T00:33:14.252Z,100471.50
2018-11-28T00:35:47.005Z,100466.12
2018-11-28T00:38:20.126Z,100460.05
2018-11-28T00:40:54.951Z,100457.81
2018-11-28T00:43:27.785Z,100452.52
2018-11-28T00:46:00.544Z,100459.75
2018-11-28T00:48:35.534Z,100463.27
2018-11-28T00:51:09.173Z,100459.28
2018-11-28T00:53:42.777Z,100448.90
2018-11-28T00:56:17.396Z,100450.33
2018-11-28T00:58:50.790Z,100448.20
2018-11-28T01:01:24.900Z,100445.83
2018-11-28T01:03:59.116Z,100441.77
2018-11-28T01:06:31.851Z,100443.02
2018-11-28T01:09:06.713Z,100439.63
2018-11-28T01:11:43.969Z,100435.93
2018-11-28T01:14:16.900Z,100436.91
2018-11-28T01:16:50.263Z,100445.47
2018-11-28T01:19:24.289Z,100440.17
2018-11-28T01:21:57.145Z,100440.38
2018-11-28T01:24:30.854Z,100442.28
2018-11-28T01:27:04.191Z,100437.24
2018-11-28T01:29:36.975Z,100440.34
2018-11-28T01:32:12.518Z,100451.39
2018-11-28T01:34:45.550Z,100446.06
2018-11-28T01:37:19.662Z,100445.91
2018-11-28T01:39:52.565Z,100443.33
2018-11-28T01:42:25.749Z,100434.38
2018-11-28T01:45:00.542Z,100440.47
2018-11-28T01:47:34.719Z,100446.55
2018-11-28T01:50:12.627Z,100456.09
2018-11-28T01:52:45.496Z,100443.16
2018-11-28T01:55:20.450Z,100453.78
2018-11-28T01:57:54.585Z,100452.38
2018-11-28T02:00:27.883Z,100453.29
2018-11-28T02:03:02.270Z,100445.58
2018-11-28T02:05:35.570Z,100446.66
2018-11-28T02:08:08.322Z,100454.70
2018-11-28T02:10:41.137Z,100448.89
2018-11-28T02:13:14.476Z,100444.65
2018-11-28T02:15:47.311Z,100447.52
2018-11-28T02:18:20.046Z,100451.25
2018-11-28T02:20:53.727Z,100448.42
2018-11-28T02:23:26.493Z,100450.91
2018-11-28T02:25:59.521Z,100435.45
2018-11-28T02:28:36.323Z,100440.94
2018-11-28T02:31:09.332Z,100436.75
2018-11-28T02:33:42.113Z,100442.11
2018-11-28T02:36:15.452Z,100438.88
2018-11-28T02:38:48.326Z,100438.19
2018-11-28T02:41:21.848Z,100436.95
2018-11-28T02:43:55.262Z,100438.77
2018-11-28T02:46:32.547Z,100433.14
2018-11-28T02:49:05.461Z,100430.75
2018-11-28T02:51:38.704Z,100423.61
2018-11-28T02:54:11.938Z,100429.70
2018-11-28T02:56:44.842Z,100417.09
2018-11-28T02:59:18.138Z,100415.17
2018-11-28T03:01:51.572Z,100415.20
2018-11-28T03:04:24.748Z,100413.55
2018-11-28T03:06:58.182Z,100412.25
2018-11-28T03:09:31.489Z,100403.77
2018-11-28T03:12:04.402Z,100403.60
2018-11-28T03:14:38.188Z,100412.67
2018-11-28T03:17:17.129Z,100408.16
2018-11-28T03:19:50.130Z,100410.44
2018-11-28T03:22:23.451Z,100414.98
2018-11-28T03:24:59.111Z,100412.89
2018-11-28T03:27:31.896Z,100419.45
2018-11-28T03:30:23.410Z,100423.47
2018-11-28T03:32:56.629Z,100420.81
2018-11-28T03:35:29.574Z,100419.75
2018-11-28T03:38:02.905Z,100414.72
2018-11-28T03:40:35.678Z,100419.87
2018-11-28T03:43:08.876Z,100409.73
2018-11-28T03:45:42.309Z,100415.86
2018-11-28T03:48:20.901Z,100412.42
2018-11-28T03:50:53.744Z,100405.19
2018-11-28T03:53:27.145Z,100404.21
2018-11-28T03:55:59.911Z,100403.85
2018-11-28T03:58:32.787Z,100400.98
2018-11-28T04:01:06.326Z,100393.94
2018-11-28T04:03:39.146Z,100396.84
2018-11-28T04:06:11.854Z,100398.35
2018-11-28T04:08:45.266Z,100403.75
2018-11-28T04:11:18.023Z,100396.27
2018-11-28T04:13:50.844Z,100393.63
2018-11-28T04:16:23.935Z,100401.53
2018-11-28T04:18:56.742Z,100403.00
2018-11-28T04:21:29.507Z,100402.83
2018-11-28T04:24:03.960Z,100392.69
2018-11-28T04:26:36.710Z,100396.12
2018-11-28T04:29:09.721Z,100401.61
2018-11-28T04:31:43.054Z,100404.99
2018-11-28T04:34:15.921Z,100406.38
2018-11-28T04:36:48.671Z,100414.91
2018-11-28T04:39:24.077Z,100414.62
2018-11-28T04:41:57.489Z,100415.16
2018-11-28T04:44:31.921Z,100411.66
2018-11-28T04:47:04.907Z,100415.76
2018-11-28T04:49:37.714Z,100411.90
2018-11-28T04:52:11.401Z,100414.33
2018-11-28T04:54:44.299Z,100409.05
2018-11-28T04:57:17.050Z,100413.72
2018-11-28T04:59:50.435Z,100405.28
2018-11-28T05:02:23.224Z,100411.23
2018-11-28T05:04:56.035Z,100408.55
2018-11-28T05:07:31.240Z,100408.28
2018-11-28T05:10:06.710Z,100400.99
2018-11-28T05:12:39.597Z,100401.97
2018-11-28T05:15:22.790Z,100401.77
2018-11-28T05:17:55.931Z,100395.28
2018-11-28T05:20:31.751Z,100409.36
2018-11-28T05:23:07.045Z,100402.22
2018-11-28T05:25:40.541Z,100415.75
2018-11-28T05:28:13.581Z,100413.02
2018-11-28T05:30:46.383Z,100413.62
2018-11-28T05:33:27.171Z,100408.55
2018-11-28T05:36:00.703Z,100413.61
2018-11-28T05:38:33.623Z,100398.52
2018-11-28T05:41:07.658Z,100400.80
2018-11-28T05:43:40.477Z,100403.53
2018-11-28T05:46:14.174Z,100402.32
2018-11-28T05:48:46.886Z,100400.33
2018-11-28T05:51:23.933Z,100393.94
2018-11-28T05:53:57.357Z,100396.72
2018-11-28T05:56:30.164Z,100394.79
2018-11-28T05:59:03.665Z,100392.30
2018-11-28T06:01:36.473Z,100395.94
2018-11-28T06:04:10.308Z,100388.66
2018-11-28T06:06:43.548Z,100403.80
2018-11-28T06:09:19.693Z,100394.84
2018-11-28T06:11:53.518Z,100398.62
2018-11-28T06:14:29.112Z,100389.66
2018-11-28T06:17:02.909Z,100390.66
2018-11-28T06:19:36.526Z,100399.91
2018-11-28T06:22:09.389Z,100395.85
2018-11-28T06:24:43.253Z,100401.62
2018-11-28T06:27:16.374Z,100398.27
2018-11-28T06:29:49.709Z,100393.06
2018-11-28T06:32:23.234Z,100392.05
2018-11-28T06:34:56.128Z,100396.28
2018-11-28T06:37:32.036Z,100395.31
2018-11-28T06:40:09.953Z,100395.77
2018-11-28T06:42:44.398Z,100397.41
2018-11-28T06:45:22.517Z,100397.58
2018-11-28T06:47:55.728Z,100406.95
2018-11-28T06:50:28.765Z,100415.09
2018-11-28T06:53:02.493Z,100400.28
2018-11-28T06:55:35.522Z,100406.02
2018-11-28T06:58:08.718Z,100421.50
2018-11-28T07:00:42.131Z,100422.20
2018-11-28T07:03:16.210Z,100418.23
2018-11-28T07:05:49.859Z,100424.47
2018-11-28T07:08:23.725Z,100433.22
2018-11-28T07:10:57.638Z,100427.19
2018-11-28T07:13:31.106Z,100425.59
2018-11-28T07:16:05.274Z,100433.32
2018-11-28T07:19:00.529Z,100452.25
2018-11-28T07:21:34.751Z,100442.46
2018-11-28T07:24:09.248Z,100441.50
2018-11-28T07:26:43.346Z,100449.89
2018-11-28T07:29:17.133Z,100450.66
2018-11-28T07:31:50.288Z,100455.03
2018-11-28T07:34:23.694Z,100458.24
2018-11-28T07:36:57.177Z,100454.17
2018-11-28T07:39:30.085Z,100463.28
2018-11-28T07:42:03.150Z,100451.45
2018-11-28T07:44:37.677Z,100455.36
2018-11-28T07:47:12.032Z,100463.03
2018-11-28T07:49:47.077Z,100470.22
2018-11-28T07:52:19.897Z,100472.61
2018-11-28T07:54:52.694Z,100460.27
2018-11-28T07:57:26.422Z,100463.72
2018-11-28T07:59:59.646Z,100464.09
2018-11-28T08:02:36.976Z,100463.36
2018-11-28T08:05:11.806Z,100453.21
2018-11-28T08:07:44.818Z,100461.33
2018-11-28T08:10:20.497Z,100468.34
2018-11-28T08:12:56.648Z,100461.31
2018-11-28T08:15:30.871Z,100464.27
2018-11-28T08:18:03.894Z,100457.76
2018-11-28T08:20:38.825Z,100456.93
2018-11-28T08:23:13.959Z,100464.09
2018-11-28T08:25:46.829Z,100467.13
2018-11-28T08:28:19.780Z,100464.23
2018-11-28T08:30:53.814Z,100476.47
2018-11-28T08:33:30.470Z,100463.47
2018-11-28T08:36:05.448Z,100450.42
2018-11-28T08:38:41.317Z,100459.86
2018-11-28T08:41:18.545Z,100453.34
2018-11-28T08:43:53.891Z,100452.97
2018-11-28T08:46:27.422Z,100451.16
2018-11-28T08:49:00.381Z,100436.06
2018-11-28T08:51:33.883Z,100451.06
2018-11-28T08:54:07.644Z,100450.12
2018-11-28T08:56:41.728Z,100447.76
2018-11-28T08:59:16.818Z,100416.67
2018-11-28T09:01:50.038Z,100440.41
2018-11-28T09:04:23.378Z,100455.77
2018-11-28T09:06:59.392Z,100449.78
2018-11-28T09:09:33.620Z,100450.14
2018-11-28T09:12:07.917Z,100449.42
2018-11-28T09:14:41.638Z,100461.68
2018-11-28T09:17:15.242Z,100454.67
2018-11-28T09:19:48.479Z,100460.00
2018-11-28T09:22:22.798Z,100459.92
2018-11-28T09:24:55.738Z,100461.71
2018-11-28T09:27:29.214Z,100457.59
2018-11-28T09:30:04.362Z,100455.70
2018-11-28T09:32:39.053Z,100455.97
2018-11-28T09:35:14.922Z,100454.41
2018-11-28T09:37:47.754Z,100457.51
2018-11-28T09:40:25.597Z,100457.48
2018-11-28T09:43:01.315Z,100454.45
2018-11-28T09:45:34.520Z,100453.83
2018-11-28T09:48:09.719Z,100453.25
2018-11-28T09:50:46.970Z,100455.53
2018-11-28T09:53:21.146Z,100458.05
2018-11-28T09:55:54.766Z,100455.36
2018-11-28T09:58:28.030Z,100448.92
2018-11-28T10:01:01.181Z,100450.41
2018-11-28T10:03:34.535Z,100449.28
2018-11-28T10:06:15.340Z,100445.84
2018-11-28T10:08:49.788Z,100446.30
2018-11-28T10:11:24.165Z,100460.35
2018-11-28T10:13:57.502Z,100443.97
2018-11-28T10:16:32.510Z,100442.72
2018-11-28T10:19:07.318Z,100420.41
2018-11-28T10:21:41.499Z,100427.61
2018-11-28T10:24:16.362Z,100428.05
2018-11-28T10:26:49.106Z,100428.02
2018-11-28T10:29:23.261Z,100422.97
2018-11-28T10:31:56.521Z,100424.62
2018-11-28T10:34:30.176Z,100413.37
2018-11-28T10:37:06.346Z,100407.38
2018-11-28T10:39:40.833Z,100402.08
2018-11-28T10:42:13.654Z,100407.18
2018-11-28T10:44:48.670Z,100408.19
2018-11-28T10:47:22.415Z,100410.11
2018-11-28T10:49:57.990Z,100386.59
2018-11-28T10:52:38.702Z,100402.58
2018-11-28T10:55:19.030Z,100397.36
2018-11-28T10:57:52.362Z,100397.50
2018-11-28T11:00:36.549Z,100393.89
2018-11-28T11:03:16.366Z,100386.48
2018-11-28T11:05:57.928Z,100399.91
2018-11-28T11:08:55.511Z,100391.94
2018-11-28T11:11:53.507Z,100384.22
2018-11-28T11:14:33.224Z,100394.14
2018-11-28T11:17:07.557Z,100391.61
2018-11-28T11:19:41.347Z,100395.40
2018-11-28T11:22:14.632Z,100388.52
2018-11-28T11:24:48.125Z,100388.55
2018-11-28T11:27:21.516Z,100391.30
2018-11-28T11:29:54.873Z,100390.47
2018-11-28T11:32:30.228Z,100387.09
2018-11-28T11:35:08.374Z,100383.74
2018-11-28T11:37:41.984Z,100381.69
2018-11-28T11:40:16.533Z,100372.48
2018-11-28T11:42:55.438Z,100369.84
2018-11-28T11:45:28.865Z,100354.31
2018-11-28T11:48:01.662Z,100357.86
2018-11-28T11:50:37.548Z,100358.06
2018-11-28T11:53:13.189Z,100352.11
2018-11-28T11:55:49.247Z,100360.20
2018-11-28T11:58:31.518Z,100355.28
2018-11-28T12:01:05.848Z,100358.47
2018-11-28T12:03:40.819Z,100354.31
2018-11-28T12:06:15.452Z,100355.55
2018-11-28T12:08:50.545Z,100357.88
2018-11-28T12:11:24.870Z,100346.16
2018-11-28T12:13:57.778Z,100349.47
2018-11-28T12:16:31.911Z,100345.63
2018-11-28T12:19:09.541Z,100335.73
2018-11-28T12:21:45.590Z,100334.97
2018-11-28T12:24:19.331Z,100325.89
2018-11-28T12:26:52.549Z,100329.30
2018-11-28T12:29:29.079Z,100339.53
2018-11-28T12:32:04.118Z,100328.09
2018-11-28T12:34:37.569Z,100342.47
2018-11-28T12:37:15.783Z,100342.68
2018-11-28T12:39:51.016Z,100316.87
2018-11-28T12:42:25.425Z,100343.94
2018-11-28T12:45:04.303Z,100334.63
2018-11-28T12:47:39.302Z,100340.67
2018-11-28T12:50:29.579Z,100340.18
2018-11-28T12:53:07.397Z,100328.41
2018-11-28T12:55:42.120Z,100328.84
2018-11-28T12:58:26.578Z,100320.61
2018-11-28T13:01:01.353Z,100326.61
2018-11-28T13:03:35.942Z,100330.86
2018-11-28T13:06:12.289Z,100333.15
2018-11-28T13:08:45.505Z,100320.23
2018-11-28T13:11:19.513Z,100303.09
2018-11-28T13:14:04.921Z,100309.20
2018-11-28T13:16:42.522Z,100287.48
2018-11-28T13:19:15.835Z,100306.73
2018-11-28T13:21:55.242Z,100299.11
2018-11-28T13:24:31.165Z,100293.75
2018-11-28T13:27:05.395Z,100299.36
2018-11-28T13:29:39.754Z,100297.95
2018-11-28T13:32:14.473Z,100284.13
2018-11-28T13:34:48.356Z,100302.46
2018-11-28T13:37:23.114Z,100289.39
2018-11-28T13:39:58.471Z,100280.63
2018-11-28T13:42:33.924Z,100271.86
2018-11-28T13:45:17.391Z,100280.63
2018-11-28T13:47:56.651Z,100277.09
2018-11-28T13:50:29.865Z,100276.38
2018-11-28T13:53:12.080Z,100273.73
2018-11-28T13:59:09.606Z,100261.74
2018-11-28T14:01:49.928Z,100266.02
2018-11-28T14:04:24.711Z,100258.09
2018-11-28T14:07:00.378Z,100258.44
2018-11-28T14:09:35.420Z,100262.06
2018-11-28T14:12:11.751Z,100255.17
2018-11-28T14:14:46.042Z,100249.44
2018-11-28T14:17:21.826Z,100251.70
2018-11-28T14:19:56.547Z,100247.66
2018-11-28T14:22:36.620Z,100249.55
2018-11-28T14:25:13.698Z,100238.30
2018-11-28T14:27:49.090Z,100237.80
2018-11-28T14:30:25.368Z,100240.77
2018-11-28T14:33:05.494Z,100242.97
2018-11-28T14:35:49.757Z,100259.34
2018-11-28T14:38:40.352Z,100259.05
2018-11-28T14:41:15.477Z,100258.77
2018-11-28T14:43:57.833Z,100260.17
2018-11-28T14:46:32.047Z,100259.62
2018-11-28T14:49:05.313Z,100267.45
2018-11-28T14:51:40.765Z,100260.28
2018-11-28T14:54:15.848Z,100258.97
2018-11-28T14:56:50.699Z,100255.81
2018-11-28T14:59:25.309Z,100271.42
2018-11-28T15:01:59.457Z,100268.30
2018-11-28T15:04:38.620Z,100267.55
2018-11-28T15:07:15.372Z,100271.74
2018-11-28T15:10:00.774Z,100263.24
2018-11-28T15:12:38.232Z,100255.53
2018-11-28T15:15:15.237Z,100245.10
2018-11-28T15:17:50.172Z,100246.33
2018-11-28T15:20:23.686Z,100249.30
2018-11-28T15:22:58.415Z,100259.88
2018-11-28T15:25:34.190Z,100257.19
2018-11-28T15:28:12.434Z,100257.91
2018-11-28T15:30:45.417Z,100268.98
2018-11-28T15:33:19.816Z,100266.26
2018-11-28T15:35:58.053Z,100265.38
2018-11-28T15:38:31.287Z,100248.14
2018-11-28T15:41:09.106Z,100262.62
2018-11-28T15:43:45.930Z,100232.84
2018-11-28T15:46:20.661Z,100253.01
2018-11-28T15:48:54.303Z,100240.55
2018-11-28T15:51:29.526Z,100237.91
2018-11-28T15:54:03.631Z,100226.92
2018-11-28T15:56:37.210Z,100234.47
2018-11-28T15:59:11.430Z,100233.05
2018-11-28T16:01:47.531Z,100261.98
2018-11-28T16:04:22.372Z,100246.36
2018-11-28T16:06:56.925Z,100263.38
2018-11-28T16:09:38.274Z,100253.83
2018-11-28T16:12:12.288Z,100247.94
2018-11-28T16:14:48.506Z,100247.80
2018-11-28T16:17:22.512Z,100262.44
2018-11-28T16:19:56.738Z,100267.23
2018-11-28T16:22:32.373Z,100255.66
2018-11-28T16:25:10.154Z,100260.37
2018-11-28T16:27:46.427Z,100249.80
2018-11-28T16:30:22.729Z,100245.24
2018-11-28T16:32:57.004Z,100230.22
2018-11-28T16:35:30.643Z,100252.45
2018-11-28T16:38:04.026Z,100256.68
2018-11-28T16:40:39.608Z,100254.42
2018-11-28T16:43:15.834Z,100253.97
2018-11-28T16:45:57.312Z,100254.77
2018-11-28T16:48:32.490Z,100256.20
2018-11-28T16:51:08.485Z,100282.54
2018-11-28T16:53:48.450Z,100270.50
2018-11-28T16:56:24.403Z,100265.89
2018-11-28T16:59:01.112Z,100277.13
2018-11-28T17:01:38.417Z,100280.27
2018-11-28T17:04:14.711Z,100281.36
2018-11-28T17:06:49.485Z,100289.24
2018-11-28T17:09:25.294Z,100281.22
2018-11-28T17:12:05.071Z,100298.45
2018-11-28T17:14:39.437Z,100305.86
2018-11-28T17:17:14.002Z,100307.24
2018-11-28T17:19:49.596Z,100304.11
2018-11-28T17:22:25.961Z,100292.93
2018-11-28T17:25:02.166Z,100294.72
2018-11-28T17:27:48.121Z,100297.72
2018-11-28T17:30:26.835Z,100289.37
2018-11-28T17:33:05.208Z,100299.06
2018-11-28T17:35:45.388Z,100310.44
2018-11-28T17:38:21.475Z,100308.82
2018-11-28T17:40:56.759Z,100307.42
2018-11-28T17:43:35.046Z,100311.98
2018-11-28T17:46:10.000Z,100299.34
2018-11-28T17:48:46.248Z,100290.83
2018-11-28T17:51:25.839Z,100288.16
2018-11-28T17:54:06.304Z,100294.17
2018-11-28T17:56:41.693Z,100286.67
2018-11-28T17:59:17.267Z,100286.73
2018-11-28T18:01:53.222Z,100263.38
2018-11-28T18:04:32.302Z,100265.14
2018-11-28T18:07:09.215Z,100255.91
2018-11-28T18:09:44.665Z,100258.75
2018-11-28T18:12:17.775Z,100268.84
2018-11-28T18:14:53.118Z,100266.86
2018-11-28T18:17:28.785Z,100270.94
2018-11-28T18:20:04.262Z,100269.84
2018-11-28T18:22:39.179Z,100281.73
2018-11-28T18:25:15.363Z,100263.08
2018-11-28T18:27:52.750Z,100240.87
2018-11-28T18:30:32.054Z,100247.33
2018-11-28T18:33:07.746Z,100235.84
2018-11-28T18:35:40.770Z,100233.61
2018-11-28T18:38:19.639Z,100254.95
2018-11-28T18:40:56.060Z,100260.63
2018-11-28T18:43:33.634Z,100263.95
2018-11-28T18:46:09.764Z,100243.06
2018-11-28T18:48:43.817Z,100241.33
2018-11-28T18:51:19.438Z,100256.06
2018-11-28T18:53:54.354Z,100262.68
2018-11-28T18:56:33.465Z,100274.13
2018-11-28T18:59:07.670Z,100274.68
2018-11-28T19:01:48.416Z,100286.55
2018-11-28T19:04:22.640Z,100281.13
2018-11-28T19:06:58.323Z,100270.68
2018-11-28T19:09:44.912Z,100260.18
2018-11-28T19:12:19.019Z,100273.06
2018-11-28T19:14:52.422Z,100255.03
2018-11-28T19:17:30.748Z,100259.80
2018-11-28T19:20:09.958Z,100253.12
2018-11-28T19:22:44.409Z,100235.00
2018-11-28T19:25:24.932Z,100238.23
2018-11-28T19:28:00.394Z,100246.16
2018-11-28T19:30:38.854Z,100244.41
2018-11-28T19:33:13.856Z,100236.63
2018-11-28T19:35:50.177Z,100227.47
2018-11-28T19:38:24.582Z,100229.41
2018-11-28T19:41:04.496Z,100225.28
2018-11-28T19:43:38.546Z,100214.89
2018-11-28T19:46:14.647Z,100223.20
2018-11-28T19:48:53.128Z,100216.82
2018-11-28T19:51:33.387Z,100216.47
2018-11-28T19:54:08.582Z,100225.20
2018-11-28T19:56:43.266Z,100228.86
2018-11-28T19:59:20.212Z,100224.83
2018-11-28T20:01:53.789Z,100228.41
2018-11-28T20:04:28.722Z,100224.83
2018-11-28T20:07:15.744Z,100220.66
2018-11-28T20:09:58.253Z,100228.05
2018-11-28T20:12:32.687Z,100230.52
2018-11-28T20:15:18.859Z,100234.67
2018-11-28T20:18:36.885Z,100229.81
2018-11-28T20:23:47.614Z,100224.88
2018-11-28T20:26:22.280Z,100222.95
2018-11-28T20:28:56.623Z,100217.19
2018-11-28T20:31:34.064Z,100222.76
2018-11-28T20:34:08.475Z,100221.30
2018-11-28T20:36:44.981Z,100225.52
2018-11-28T20:39:20.014Z,100202.66
2018-11-28T20:41:55.349Z,100213.91
2018-11-28T20:44:32.145Z,100215.31
2018-11-28T20:47:06.699Z,100208.91
2018-11-28T20:49:42.386Z,100204.87
2018-11-28T20:52:18.563Z,100200.78
2018-11-28T20:54:54.797Z,100201.02
2018-11-28T20:57:28.423Z,100197.55
2018-11-28T21:00:10.179Z,100177.77
2018-11-28T21:02:47.049Z,100186.25
2018-11-28T21:05:35.166Z,100199.91
2018-11-28T21:08:22.140Z,100205.16
2018-11-28T21:14:15.391Z,100192.27
2018-11-28T21:16:52.743Z,100203.72
2018-11-28T21:19:32.032Z,100208.14
2018-11-28T21:22:09.705Z,100193.97
2018-11-28T21:24:47.061Z,100200.87
2018-11-28T21:27:22.376Z,100192.91
2018-11-28T21:29:56.408Z,100197.48
2018-11-28T21:32:29.533Z,100197.44
2018-11-28T21:35:06.774Z,100201.09
2018-11-28T21:37:42.992Z,100200.65
2018-11-28T21:40:16.351Z,100190.38
2018-11-28T21:42:49.588Z,100191.97
2018-11-28T21:45:25.428Z,100189.67
2018-11-28T21:48:00.013Z,100198.44
2018-11-28T21:50:35.082Z,100190.09
2018-11-28T21:53:13.398Z,100189.88
2018-11-28T21:55:47.645Z,100171.35
2018-11-28T21:58:23.575Z,100174.45
2018-11-28T22:00:57.492Z,100185.66
2018-11-28T22:03:32.618Z,100180.94
2018-11-28T22:06:06.860Z,100186.46
2018-11-28T22:08:41.208Z,100191.94
2018-11-28T22:11:14.760Z,100185.13
2018-11-28T22:13:48.326Z,100183.83
2018-11-28T22:16:22.284Z,100182.15
2018-11-28T22:18:55.257Z,100192.19
2018-11-28T22:21:29.698Z,100203.57
2018-11-28T22:24:03.271Z,100196.36
2018-11-28T22:26:36.248Z,100184.91
2018-11-28T22:29:09.898Z,100186.09
2018-11-28T22:31:42.999Z,100184.83
2018-11-28T22:34:15.996Z,100184.44
2018-11-28T22:36:50.389Z,100183.84
2018-11-28T22:39:23.439Z,100188.09
2018-11-28T22:42:01.735Z,100172.73
2018-11-28T22:44:36.835Z,100186.95
2018-11-28T22:47:10.870Z,100195.23
2018-11-28T22:49:44.416Z,100185.28
2018-11-28T22:52:18.306Z,100186.23
2018-11-28T22:54:51.654Z,100186.22
2018-11-28T22:57:25.137Z,100177.30
2018-11-28T22:59:58.447Z,100180.55
2018-11-28T23:02:51.049Z,100170.48
2018-11-28T23:05:30.517Z,100171.81
2018-11-28T23:08:07.142Z,100165.14
2018-11-28T23:10:40.670Z,100165.75
2018-11-28T23:13:15.604Z,100141.24
2018-11-28T23:15:48.701Z,100176.47
2018-11-28T23:18:22.641Z,100171.23
2018-11-28T23:20:55.617Z,100155.64
2018-11-28T23:23:29.391Z,100161.39
2018-11-28T23:26:02.889Z,100151.22
2018-11-28T23:28:35.845Z,100141.25
2018-11-28T23:31:08.857Z,100154.70
2018-11-28T23:33:43.076Z,100134.03
2018-11-28T23:36:18.426Z,100150.74
2018-11-28T23:38:51.685Z,100134.11
2018-11-28T23:41:25.399Z,100128.33
2018-11-28T23:43:58.574Z,100126.91
2018-11-28T23:46:31.585Z,100140.59
2018-11-28T23:49:05.258Z,100145.62
2018-11-28T23:51:38.139Z,100138.74
2018-11-28T23:54:11.956Z,100148.56
2018-11-28T23:56:45.621Z,100128.63
2018-11-28T23:59:18.503Z,100134.37
